sensor_id;sensor_type;location;lat;lon;timestamp;P1;durP1;ratioP1;P2;durP2;ratioP2
51738;SDS011;37815;52.692;6.226;2022-12-01T00:00:20;28.92;;;11.38;;
51738;SDS011;37815;52.692;6.226;2022-12-01T00:05:21;30.20;;;12.48;;
51738;SDS011;37815;52.692;6.226;2022-12-01T00:10:21;29.30;;;12.70;;
51738;SDS011;37815;52.692;6.226;2022-12-01T00:15:25;31.02;;;12.60;;
51738;SDS011;37815;52.692;6.226;2022-12-01T00:20:34;30.80;;;12.50;;
51738;SDS011;37815;52.692;6.226;2022-12-01T00:25:35;35.53;;;12.48;;
51738;SDS011;37815;52.692;6.226;2022-12-01T00:30:36;37.33;;;13.23;;
51738;SDS011;37815;52.692;6.226;2022-12-01T00:35:36;35.53;;;13.23;;
51738;SDS011;37815;52.692;6.226;2022-12-01T00:40:37;37.53;;;13.48;;
51738;SDS011;37815;52.692;6.226;2022-12-01T00:45:37;33.13;;;13.48;;
51738;SDS011;37815;52.692;6.226;2022-12-01T00:50:38;36.78;;;13.02;;
51738;SDS011;37815;52.692;6.226;2022-12-01T00:55:39;34.58;;;13.07;;
51738;SDS011;37815;52.692;6.226;2022-12-01T01:00:43;35.33;;;13.55;;
51738;SDS011;37815;52.692;6.226;2022-12-01T01:05:43;38.33;;;13.68;;
51738;SDS011;37815;52.692;6.226;2022-12-01T01:10:45;37.28;;;12.60;;
51738;SDS011;37815;52.692;6.226;2022-12-01T01:15:55;40.35;;;14.20;;
51738;SDS011;37815;52.692;6.226;2022-12-01T01:20:57;40.63;;;14.55;;
51738;SDS011;37815;52.692;6.226;2022-12-01T01:26:06;44.47;;;14.23;;
51738;SDS011;37815;52.692;6.226;2022-12-01T01:31:20;46.97;;;14.93;;
51738;SDS011;37815;52.692;6.226;2022-12-01T01:36:22;38.53;;;13.88;;
51738;SDS011;37815;52.692;6.226;2022-12-01T01:41:23;43.53;;;14.57;;
51738;SDS011;37815;52.692;6.226;2022-12-01T01:46:28;43.95;;;14.35;;
51738;SDS011;37815;52.692;6.226;2022-12-01T01:51:50;41.85;;;14.02;;
51738;SDS011;37815;52.692;6.226;2022-12-01T01:56:52;39.92;;;13.95;;
51738;SDS011;37815;52.692;6.226;2022-12-01T02:01:59;40.97;;;14.13;;
51738;SDS011;37815;52.692;6.226;2022-12-01T02:07:05;40.28;;;15.00;;
51738;SDS011;37815;52.692;6.226;2022-12-01T02:33:04;35.38;;;14.57;;
51738;SDS011;37815;52.692;6.226;2022-12-01T02:49:13;38.95;;;13.13;;
51738;SDS011;37815;52.692;6.226;2022-12-01T02:54:16;43.00;;;13.40;;
51738;SDS011;37815;52.692;6.226;2022-12-01T02:59:18;46.00;;;14.75;;
51738;SDS011;37815;52.692;6.226;2022-12-01T03:20:42;44.08;;;14.88;;
51738;SDS011;37815;52.692;6.226;2022-12-01T03:25:51;37.97;;;14.73;;
51738;SDS011;37815;52.692;6.226;2022-12-01T03:30:54;43.95;;;15.98;;
51738;SDS011;37815;52.692;6.226;2022-12-01T03:36:04;47.67;;;16.48;;
51738;SDS011;37815;52.692;6.226;2022-12-01T03:41:16;38.85;;;14.32;;
51738;SDS011;37815;52.692;6.226;2022-12-01T03:46:28;38.60;;;14.63;;
51738;SDS011;37815;52.692;6.226;2022-12-01T03:51:48;39.47;;;13.90;;
51738;SDS011;37815;52.692;6.226;2022-12-01T03:56:59;41.38;;;16.35;;
51738;SDS011;37815;52.692;6.226;2022-12-01T04:02:05;35.13;;;13.32;;
51738;SDS011;37815;52.692;6.226;2022-12-01T04:07:06;36.78;;;14.00;;
51738;SDS011;37815;52.692;6.226;2022-12-01T04:12:12;38.97;;;14.80;;
51738;SDS011;37815;52.692;6.226;2022-12-01T04:17:28;39.65;;;13.93;;
51738;SDS011;37815;52.692;6.226;2022-12-01T04:22:29;33.80;;;13.43;;
51738;SDS011;37815;52.692;6.226;2022-12-01T04:27:30;36.30;;;14.80;;
51738;SDS011;37815;52.692;6.226;2022-12-01T04:32:31;40.15;;;14.05;;
51738;SDS011;37815;52.692;6.226;2022-12-01T04:37:36;33.55;;;13.57;;
51738;SDS011;37815;52.692;6.226;2022-12-01T04:42:37;40.50;;;13.93;;
51738;SDS011;37815;52.692;6.226;2022-12-01T04:47:38;40.83;;;14.40;;
51738;SDS011;37815;52.692;6.226;2022-12-01T04:52:38;38.45;;;14.43;;
51738;SDS011;37815;52.692;6.226;2022-12-01T04:57:39;34.40;;;13.15;;
51738;SDS011;37815;52.692;6.226;2022-12-01T05:02:40;35.80;;;13.80;;
51738;SDS011;37815;52.692;6.226;2022-12-01T05:07:42;43.10;;;14.23;;
51738;SDS011;37815;52.692;6.226;2022-12-01T05:12:44;36.00;;;14.55;;
51738;SDS011;37815;52.692;6.226;2022-12-01T05:17:45;37.30;;;14.35;;
51738;SDS011;37815;52.692;6.226;2022-12-01T05:22:46;42.28;;;15.90;;
51738;SDS011;37815;52.692;6.226;2022-12-01T05:27:47;38.75;;;15.13;;
51738;SDS011;37815;52.692;6.226;2022-12-01T05:32:47;38.65;;;15.27;;
51738;SDS011;37815;52.692;6.226;2022-12-01T05:37:48;34.65;;;13.98;;
51738;SDS011;37815;52.692;6.226;2022-12-01T05:42:49;35.13;;;13.70;;
51738;SDS011;37815;52.692;6.226;2022-12-01T05:47:53;35.35;;;14.23;;
51738;SDS011;37815;52.692;6.226;2022-12-01T05:52:57;39.22;;;14.63;;
51738;SDS011;37815;52.692;6.226;2022-12-01T05:57:58;39.58;;;15.25;;
51738;SDS011;37815;52.692;6.226;2022-12-01T06:02:59;36.80;;;14.13;;
51738;SDS011;37815;52.692;6.226;2022-12-01T06:08:01;35.42;;;14.20;;
51738;SDS011;37815;52.692;6.226;2022-12-01T06:13:01;40.17;;;15.45;;
51738;SDS011;37815;52.692;6.226;2022-12-01T06:18:02;36.33;;;14.48;;
51738;SDS011;37815;52.692;6.226;2022-12-01T06:23:03;37.08;;;13.80;;
51738;SDS011;37815;52.692;6.226;2022-12-01T06:28:04;35.85;;;13.82;;
51738;SDS011;37815;52.692;6.226;2022-12-01T06:33:04;40.72;;;15.23;;
51738;SDS011;37815;52.692;6.226;2022-12-01T06:38:05;39.63;;;15.20;;
51738;SDS011;37815;52.692;6.226;2022-12-01T06:43:06;38.15;;;14.50;;
51738;SDS011;37815;52.692;6.226;2022-12-01T06:48:06;38.40;;;14.85;;
51738;SDS011;37815;52.692;6.226;2022-12-01T06:53:08;41.90;;;15.02;;
51738;SDS011;37815;52.692;6.226;2022-12-01T06:58:09;38.65;;;13.50;;
51738;SDS011;37815;52.692;6.226;2022-12-01T07:03:10;36.38;;;14.43;;
51738;SDS011;37815;52.692;6.226;2022-12-01T07:08:12;37.63;;;13.82;;
51738;SDS011;37815;52.692;6.226;2022-12-01T07:13:12;39.40;;;15.20;;
51738;SDS011;37815;52.692;6.226;2022-12-01T07:18:13;42.75;;;15.38;;
51738;SDS011;37815;52.692;6.226;2022-12-01T07:23:14;39.05;;;14.93;;
51738;SDS011;37815;52.692;6.226;2022-12-01T07:28:15;36.53;;;14.38;;
51738;SDS011;37815;52.692;6.226;2022-12-01T07:33:16;39.15;;;15.85;;
51738;SDS011;37815;52.692;6.226;2022-12-01T07:38:16;36.35;;;14.18;;
51738;SDS011;37815;52.692;6.226;2022-12-01T07:43:17;39.42;;;14.43;;
51738;SDS011;37815;52.692;6.226;2022-12-01T07:48:18;34.65;;;14.77;;
51738;SDS011;37815;52.692;6.226;2022-12-01T07:53:19;39.17;;;15.95;;
51738;SDS011;37815;52.692;6.226;2022-12-01T07:58:19;35.20;;;14.15;;
51738;SDS011;37815;52.692;6.226;2022-12-01T08:03:20;36.63;;;14.07;;
51738;SDS011;37815;52.692;6.226;2022-12-01T08:08:21;41.60;;;14.30;;
51738;SDS011;37815;52.692;6.226;2022-12-01T08:13:22;42.28;;;15.38;;
51738;SDS011;37815;52.692;6.226;2022-12-01T08:18:23;39.88;;;15.30;;
51738;SDS011;37815;52.692;6.226;2022-12-01T08:23:24;41.97;;;15.15;;
51738;SDS011;37815;52.692;6.226;2022-12-01T08:28:24;40.72;;;15.35;;
51738;SDS011;37815;52.692;6.226;2022-12-01T08:33:25;36.63;;;14.05;;
51738;SDS011;37815;52.692;6.226;2022-12-01T08:38:28;40.35;;;14.13;;
51738;SDS011;37815;52.692;6.226;2022-12-01T08:43:28;38.55;;;14.65;;
51738;SDS011;37815;52.692;6.226;2022-12-01T08:48:29;39.08;;;14.52;;
51738;SDS011;37815;52.692;6.226;2022-12-01T08:53:30;39.45;;;15.40;;
51738;SDS011;37815;52.692;6.226;2022-12-01T08:58:32;37.83;;;15.90;;
51738;SDS011;37815;52.692;6.226;2022-12-01T09:03:34;38.72;;;14.30;;
51738;SDS011;37815;52.692;6.226;2022-12-01T09:08:35;43.47;;;15.18;;
51738;SDS011;37815;52.692;6.226;2022-12-01T09:13:37;41.78;;;15.32;;
51738;SDS011;37815;52.692;6.226;2022-12-01T09:18:39;42.15;;;14.93;;
51738;SDS011;37815;52.692;6.226;2022-12-01T09:23:40;40.63;;;15.20;;
51738;SDS011;37815;52.692;6.226;2022-12-01T09:28:41;36.13;;;13.77;;
51738;SDS011;37815;52.692;6.226;2022-12-01T09:33:42;41.28;;;14.90;;
51738;SDS011;37815;52.692;6.226;2022-12-01T09:38:43;39.22;;;14.35;;
51738;SDS011;37815;52.692;6.226;2022-12-01T09:43:53;39.45;;;15.95;;
51738;SDS011;37815;52.692;6.226;2022-12-01T09:49:05;41.03;;;14.65;;
51738;SDS011;37815;52.692;6.226;2022-12-01T09:54:12;42.75;;;16.00;;
51738;SDS011;37815;52.692;6.226;2022-12-01T09:59:15;44.05;;;16.58;;
51738;SDS011;37815;52.692;6.226;2022-12-01T10:04:35;45.17;;;16.70;;
51738;SDS011;37815;52.692;6.226;2022-12-01T10:09:50;45.92;;;16.95;;
51738;SDS011;37815;52.692;6.226;2022-12-01T10:14:59;47.35;;;17.55;;
51738;SDS011;37815;52.692;6.226;2022-12-01T10:20:15;47.88;;;18.50;;
51738;SDS011;37815;52.692;6.226;2022-12-01T10:25:30;51.75;;;17.38;;
51738;SDS011;37815;52.692;6.226;2022-12-01T10:30:45;46.60;;;17.00;;
51738;SDS011;37815;52.692;6.226;2022-12-01T10:35:49;45.50;;;16.42;;
51738;SDS011;37815;52.692;6.226;2022-12-01T10:40:50;47.67;;;17.63;;
51738;SDS011;37815;52.692;6.226;2022-12-01T10:45:52;41.10;;;17.02;;
51738;SDS011;37815;52.692;6.226;2022-12-01T10:50:55;42.85;;;16.73;;
51738;SDS011;37815;52.692;6.226;2022-12-01T10:56:17;43.00;;;16.27;;
51738;SDS011;37815;52.692;6.226;2022-12-01T11:01:26;52.72;;;16.75;;
51738;SDS011;37815;52.692;6.226;2022-12-01T11:06:33;45.30;;;16.25;;
51738;SDS011;37815;52.692;6.226;2022-12-01T11:11:36;41.10;;;15.65;;
51738;SDS011;37815;52.692;6.226;2022-12-01T11:16:40;46.75;;;16.13;;
51738;SDS011;37815;52.692;6.226;2022-12-01T11:21:44;39.28;;;15.40;;
51738;SDS011;37815;52.692;6.226;2022-12-01T11:26:49;42.85;;;15.68;;
51738;SDS011;37815;52.692;6.226;2022-12-01T11:31:50;38.92;;;15.02;;
51738;SDS011;37815;52.692;6.226;2022-12-01T11:36:52;42.92;;;15.35;;
51738;SDS011;37815;52.692;6.226;2022-12-01T11:41:56;35.50;;;14.18;;
51738;SDS011;37815;52.692;6.226;2022-12-01T11:47:16;38.97;;;14.80;;
51738;SDS011;37815;52.692;6.226;2022-12-01T11:52:23;41.97;;;14.77;;
51738;SDS011;37815;52.692;6.226;2022-12-01T11:57:39;38.22;;;14.52;;
51738;SDS011;37815;52.692;6.226;2022-12-01T12:02:46;38.33;;;15.07;;
51738;SDS011;37815;52.692;6.226;2022-12-01T12:13:08;42.33;;;15.00;;
51738;SDS011;37815;52.692;6.226;2022-12-01T12:29:20;33.22;;;12.90;;
51738;SDS011;37815;52.692;6.226;2022-12-01T12:55:35;32.88;;;13.32;;
51738;SDS011;37815;52.692;6.226;2022-12-01T13:00:40;31.35;;;12.68;;
51738;SDS011;37815;52.692;6.226;2022-12-01T13:05:49;31.15;;;12.63;;
51738;SDS011;37815;52.692;6.226;2022-12-01T13:16:05;28.08;;;11.85;;
51738;SDS011;37815;52.692;6.226;2022-12-01T13:21:14;30.65;;;12.30;;
51738;SDS011;37815;52.692;6.226;2022-12-01T13:26:17;29.45;;;11.70;;
51738;SDS011;37815;52.692;6.226;2022-12-01T13:31:20;25.80;;;12.00;;
51738;SDS011;37815;52.692;6.226;2022-12-01T13:36:21;29.73;;;12.20;;
51738;SDS011;37815;52.692;6.226;2022-12-01T13:41:27;29.95;;;12.27;;
51738;SDS011;37815;52.692;6.226;2022-12-01T13:57:15;29.90;;;12.75;;
51738;SDS011;37815;52.692;6.226;2022-12-01T14:02:27;32.97;;;12.23;;
51738;SDS011;37815;52.692;6.226;2022-12-01T14:07:33;24.65;;;11.73;;
51738;SDS011;37815;52.692;6.226;2022-12-01T14:12:35;31.02;;;13.80;;
51738;SDS011;37815;52.692;6.226;2022-12-01T14:17:36;28.35;;;12.32;;
51738;SDS011;37815;52.692;6.226;2022-12-01T14:27:47;25.35;;;11.45;;
51738;SDS011;37815;52.692;6.226;2022-12-01T14:32:49;25.83;;;11.73;;
51738;SDS011;37815;52.692;6.226;2022-12-01T14:37:50;26.08;;;11.88;;
51738;SDS011;37815;52.692;6.226;2022-12-01T14:42:52;31.90;;;11.68;;
51738;SDS011;37815;52.692;6.226;2022-12-01T14:48:16;26.90;;;11.85;;
51738;SDS011;37815;52.692;6.226;2022-12-01T14:53:40;26.90;;;10.80;;
51738;SDS011;37815;52.692;6.226;2022-12-01T14:58:58;27.58;;;11.10;;
51738;SDS011;37815;52.692;6.226;2022-12-01T15:04:00;25.77;;;10.57;;
51738;SDS011;37815;52.692;6.226;2022-12-01T15:14:19;28.67;;;10.70;;
51738;SDS011;37815;52.692;6.226;2022-12-01T15:19:39;27.85;;;10.65;;
51738;SDS011;37815;52.692;6.226;2022-12-01T15:24:40;23.70;;;9.70;;
51738;SDS011;37815;52.692;6.226;2022-12-01T15:29:42;33.13;;;12.80;;
51738;SDS011;37815;52.692;6.226;2022-12-01T15:34:46;24.10;;;11.10;;
51738;SDS011;37815;52.692;6.226;2022-12-01T15:39:57;27.20;;;10.98;;
51738;SDS011;37815;52.692;6.226;2022-12-01T15:50:26;29.08;;;11.27;;
51738;SDS011;37815;52.692;6.226;2022-12-01T15:55:47;24.00;;;10.95;;
51738;SDS011;37815;52.692;6.226;2022-12-01T16:11:19;26.47;;;11.90;;
51738;SDS011;37815;52.692;6.226;2022-12-01T16:21:50;30.23;;;11.00;;
51738;SDS011;37815;52.692;6.226;2022-12-01T16:32:10;31.25;;;12.43;;
51738;SDS011;37815;52.692;6.226;2022-12-01T16:37:16;30.60;;;12.55;;
51738;SDS011;37815;52.692;6.226;2022-12-01T16:42:18;25.98;;;10.60;;
51738;SDS011;37815;52.692;6.226;2022-12-01T16:47:21;30.27;;;11.52;;
51738;SDS011;37815;52.692;6.226;2022-12-01T16:52:23;26.20;;;11.00;;
51738;SDS011;37815;52.692;6.226;2022-12-01T16:57:23;30.63;;;11.68;;
51738;SDS011;37815;52.692;6.226;2022-12-01T17:02:24;25.80;;;11.70;;
51738;SDS011;37815;52.692;6.226;2022-12-01T17:07:28;27.08;;;11.73;;
51738;SDS011;37815;52.692;6.226;2022-12-01T17:12:30;25.05;;;11.50;;
51738;SDS011;37815;52.692;6.226;2022-12-01T17:17:31;32.25;;;12.55;;
51738;SDS011;37815;52.692;6.226;2022-12-01T17:22:33;26.92;;;11.63;;
51738;SDS011;37815;52.692;6.226;2022-12-01T17:27:34;25.17;;;11.20;;
51738;SDS011;37815;52.692;6.226;2022-12-01T17:32:36;29.02;;;11.35;;
51738;SDS011;37815;52.692;6.226;2022-12-01T17:37:37;26.35;;;11.05;;
51738;SDS011;37815;52.692;6.226;2022-12-01T17:42:38;30.00;;;12.25;;
51738;SDS011;37815;52.692;6.226;2022-12-01T17:47:39;29.02;;;12.57;;
51738;SDS011;37815;52.692;6.226;2022-12-01T17:57:50;27.40;;;12.32;;
51738;SDS011;37815;52.692;6.226;2022-12-01T18:02:51;32.42;;;12.93;;
51738;SDS011;37815;52.692;6.226;2022-12-01T18:07:52;34.03;;;13.70;;
51738;SDS011;37815;52.692;6.226;2022-12-01T18:12:52;32.30;;;14.77;;
51738;SDS011;37815;52.692;6.226;2022-12-01T18:17:53;31.73;;;13.15;;
51738;SDS011;37815;52.692;6.226;2022-12-01T18:22:54;34.00;;;14.25;;
51738;SDS011;37815;52.692;6.226;2022-12-01T18:27:55;28.63;;;13.40;;
51738;SDS011;37815;52.692;6.226;2022-12-01T18:32:57;34.58;;;14.65;;
51738;SDS011;37815;52.692;6.226;2022-12-01T18:37:59;34.03;;;15.57;;
51738;SDS011;37815;52.692;6.226;2022-12-01T18:42:59;39.92;;;16.00;;
51738;SDS011;37815;52.692;6.226;2022-12-01T18:48:00;39.85;;;15.82;;
51738;SDS011;37815;52.692;6.226;2022-12-01T18:53:03;50.45;;;20.42;;
51738;SDS011;37815;52.692;6.226;2022-12-01T18:58:04;55.00;;;19.85;;
51738;SDS011;37815;52.692;6.226;2022-12-01T19:03:05;48.90;;;19.75;;
51738;SDS011;37815;52.692;6.226;2022-12-01T19:08:06;50.83;;;19.35;;
51738;SDS011;37815;52.692;6.226;2022-12-01T19:13:07;49.35;;;19.88;;
51738;SDS011;37815;52.692;6.226;2022-12-01T19:18:08;55.17;;;20.17;;
51738;SDS011;37815;52.692;6.226;2022-12-01T19:23:09;46.22;;;19.42;;
51738;SDS011;37815;52.692;6.226;2022-12-01T19:28:09;50.00;;;19.85;;
51738;SDS011;37815;52.692;6.226;2022-12-01T19:33:11;49.42;;;19.55;;
51738;SDS011;37815;52.692;6.226;2022-12-01T19:38:11;53.22;;;20.02;;
51738;SDS011;37815;52.692;6.226;2022-12-01T19:43:12;47.95;;;19.83;;
51738;SDS011;37815;52.692;6.226;2022-12-01T19:48:13;46.15;;;18.70;;
51738;SDS011;37815;52.692;6.226;2022-12-01T19:53:13;50.13;;;19.65;;
51738;SDS011;37815;52.692;6.226;2022-12-01T19:58:14;47.60;;;19.73;;
51738;SDS011;37815;52.692;6.226;2022-12-01T20:03:15;49.00;;;19.95;;
51738;SDS011;37815;52.692;6.226;2022-12-01T20:08:16;45.38;;;18.92;;
51738;SDS011;37815;52.692;6.226;2022-12-01T20:13:16;45.58;;;18.65;;
51738;SDS011;37815;52.692;6.226;2022-12-01T20:18:17;51.42;;;20.58;;
51738;SDS011;37815;52.692;6.226;2022-12-01T20:23:18;45.05;;;18.02;;
51738;SDS011;37815;52.692;6.226;2022-12-01T20:28:18;51.58;;;19.40;;
51738;SDS011;37815;52.692;6.226;2022-12-01T20:33:19;42.97;;;17.60;;
51738;SDS011;37815;52.692;6.226;2022-12-01T20:38:20;43.65;;;17.90;;
51738;SDS011;37815;52.692;6.226;2022-12-01T20:43:20;47.55;;;19.08;;
51738;SDS011;37815;52.692;6.226;2022-12-01T20:48:21;46.60;;;17.98;;
51738;SDS011;37815;52.692;6.226;2022-12-01T20:53:22;46.72;;;20.90;;
51738;SDS011;37815;52.692;6.226;2022-12-01T20:58:23;47.58;;;20.05;;
51738;SDS011;37815;52.692;6.226;2022-12-01T21:03:23;41.08;;;17.60;;
51738;SDS011;37815;52.692;6.226;2022-12-01T21:08:24;43.35;;;17.58;;
51738;SDS011;37815;52.692;6.226;2022-12-01T21:13:25;48.15;;;19.00;;
51738;SDS011;37815;52.692;6.226;2022-12-01T21:29:22;41.15;;;18.08;;
51738;SDS011;37815;52.692;6.226;2022-12-01T21:34:25;45.83;;;18.40;;
51738;SDS011;37815;52.692;6.226;2022-12-01T21:39:28;44.65;;;18.17;;
51738;SDS011;37815;52.692;6.226;2022-12-01T21:44:31;48.17;;;18.55;;
51738;SDS011;37815;52.692;6.226;2022-12-01T21:49:36;40.80;;;18.25;;
51738;SDS011;37815;52.692;6.226;2022-12-01T21:54:38;45.28;;;18.67;;
51738;SDS011;37815;52.692;6.226;2022-12-01T21:59:39;45.22;;;17.30;;
51738;SDS011;37815;52.692;6.226;2022-12-01T22:04:39;46.13;;;18.15;;
51738;SDS011;37815;52.692;6.226;2022-12-01T22:09:42;39.72;;;16.70;;
51738;SDS011;37815;52.692;6.226;2022-12-01T22:14:43;45.92;;;17.77;;
51738;SDS011;37815;52.692;6.226;2022-12-01T22:19:44;47.50;;;19.27;;
51738;SDS011;37815;52.692;6.226;2022-12-01T22:24:50;46.75;;;18.08;;
51738;SDS011;37815;52.692;6.226;2022-12-01T22:30:35;51.17;;;19.77;;
51738;SDS011;37815;52.692;6.226;2022-12-01T22:35:37;47.90;;;18.95;;
51738;SDS011;37815;52.692;6.226;2022-12-01T22:51:20;45.75;;;18.00;;
51738;SDS011;37815;52.692;6.226;2022-12-01T22:56:32;46.33;;;17.50;;
51738;SDS011;37815;52.692;6.226;2022-12-01T23:11:59;50.10;;;17.50;;
51738;SDS011;37815;52.692;6.226;2022-12-01T23:17:20;43.72;;;16.90;;
51738;SDS011;37815;52.692;6.226;2022-12-01T23:22:28;42.85;;;17.75;;
51738;SDS011;37815;52.692;6.226;2022-12-01T23:27:29;43.13;;;15.70;;
51738;SDS011;37815;52.692;6.226;2022-12-01T23:32:30;43.20;;;16.58;;
51738;SDS011;37815;52.692;6.226;2022-12-01T23:37:38;40.30;;;16.27;;
51738;SDS011;37815;52.692;6.226;2022-12-01T23:42:40;37.55;;;14.52;;
51738;SDS011;37815;52.692;6.226;2022-12-01T23:47:41;33.38;;;14.15;;
51738;SDS011;37815;52.692;6.226;2022-12-01T23:52:42;38.80;;;15.13;;
51738;SDS011;37815;52.692;6.226;2022-12-01T23:57:42;36.30;;;14.95;;
